Terminal Aerodrome Forecast
Issued by NWS Upton, NY

Home | Current Version | Previous Version | Text Only | Print | Product List | Glossary On
Versions: 1 2 3 4 5 6 7 8 9 10 11 12 13 14 15 16 17 18 19 20 21 22 23 24 25 26 27 28 29 30 31 32 33
186
FTUS41 KOKX 250231 AAB
TAFLGA
TAF AMD
KLGA 250231Z 2503/2524 06011KT P6SM SCT017 SCT040 BKN100
      TEMPO 2503/2505 BKN017
     FM250500 07007KT P6SM OVC017
     FM251200 05010KT P6SM SCT012 OVC025
     FM251800 04011KT P6SM OVC035=

USA.gov is the U.S. government's official web portal to all federal, state and local government web resources and services.